sensor_id;sensor_type;location;lat;lon;timestamp;pressure;altitude;pressure_sealevel;temperature;humidity
36932;BME280;22847;42.654;23.370;2023-05-08T00:02:26;94860.38;;;15.84;57.52
36932;BME280;22847;42.654;23.370;2023-05-08T00:04:51;94807.19;;;15.74;56.76
36932;BME280;22847;42.654;23.370;2023-05-08T00:07:16;94828.91;;;15.68;57.40
36932;BME280;22847;42.654;23.370;2023-05-08T00:09:42;94826.50;;;15.89;56.68
36932;BME280;22847;42.654;23.370;2023-05-08T00:12:07;94863.06;;;15.68;57.38
36932;BME280;22847;42.654;23.370;2023-05-08T00:14:33;94710.34;;;14.85;57.36
36932;BME280;22847;42.654;23.370;2023-05-08T00:16:58;94834.56;;;15.48;57.30
36932;BME280;22847;42.654;23.370;2023-05-08T00:19:23;94681.03;;;14.65;56.92
36932;BME280;22847;42.654;23.370;2023-05-08T00:21:49;94855.84;;;15.70;56.61
36932;BME280;22847;42.654;23.370;2023-05-08T00:24:14;94727.06;;;14.84;56.66
36932;BME280;22847;42.654;23.370;2023-05-08T00:26:40;94665.84;;;14.44;56.31
36932;BME280;22847;42.654;23.370;2023-05-08T00:29:06;94836.59;;;15.30;56.90
36932;BME280;22847;42.654;23.370;2023-05-08T00:31:31;94849.69;;;15.38;56.93
36932;BME280;22847;42.654;23.370;2023-05-08T00:33:56;94844.59;;;15.53;56.53
36932;BME280;22847;42.654;23.370;2023-05-08T00:36:22;94846.44;;;15.28;56.91
36932;BME280;22847;42.654;23.370;2023-05-08T00:38:47;94864.78;;;15.44;56.75
36932;BME280;22847;42.654;23.370;2023-05-08T00:41:13;94853.22;;;15.70;56.08
36932;BME280;22847;42.654;23.370;2023-05-08T00:43:38;94857.03;;;15.90;56.48
36932;BME280;22847;42.654;23.370;2023-05-08T00:46:04;94865.19;;;16.03;56.08
36932;BME280;22847;42.654;23.370;2023-05-08T00:48:32;94856.09;;;16.14;55.67
36932;BME280;22847;42.654;23.370;2023-05-08T00:50:59;94856.94;;;16.14;55.40
36932;BME280;22847;42.654;23.370;2023-05-08T00:53:26;94847.59;;;16.12;55.35
36932;BME280;22847;42.654;23.370;2023-05-08T00:55:52;94881.44;;;16.15;55.36
36932;BME280;22847;42.654;23.370;2023-05-08T00:58:21;94832.44;;;15.83;55.21
36932;BME280;22847;42.654;23.370;2023-05-08T01:00:49;94856.38;;;15.96;55.78
36932;BME280;22847;42.654;23.370;2023-05-08T01:03:17;94824.41;;;15.76;55.64
36932;BME280;22847;42.654;23.370;2023-05-08T01:05:42;94859.00;;;15.96;55.86
36932;BME280;22847;42.654;23.370;2023-05-08T01:08:07;94866.06;;;15.95;55.76
36932;BME280;22847;42.654;23.370;2023-05-08T01:11:05;94707.13;;;15.05;55.58
36932;BME280;22847;42.654;23.370;2023-05-08T01:33:24;94841.44;;;15.49;60.08
36932;BME280;22847;42.654;23.370;2023-05-08T01:38:54;94853.47;;;15.36;60.48
36932;BME280;22847;42.654;23.370;2023-05-08T01:41:26;94813.25;;;15.35;60.33
36932;BME280;22847;42.654;23.370;2023-05-08T01:46:32;94738.53;;;14.91;60.56
36932;BME280;22847;42.654;23.370;2023-05-08T01:49:04;94849.44;;;15.64;60.46
36932;BME280;22847;42.654;23.370;2023-05-08T01:51:43;94819.94;;;15.46;61.14
36932;BME280;22847;42.654;23.370;2023-05-08T01:54:13;94859.84;;;15.57;60.96
36932;BME280;22847;42.654;23.370;2023-05-08T01:56:42;94828.66;;;15.38;61.18
36932;BME280;22847;42.654;23.370;2023-05-08T01:59:12;94690.38;;;14.67;60.75
36932;BME280;22847;42.654;23.370;2023-05-08T02:01:40;94827.69;;;15.39;61.16
36932;BME280;22847;42.654;23.370;2023-05-08T02:04:07;94849.34;;;15.57;61.01
36932;BME280;22847;42.654;23.370;2023-05-08T02:06:34;94796.34;;;15.30;60.91
36932;BME280;22847;42.654;23.370;2023-05-08T02:09:01;94815.75;;;15.21;61.52
36932;BME280;22847;42.654;23.370;2023-05-08T02:11:28;94858.72;;;15.52;61.76
36932;BME280;22847;42.654;23.370;2023-05-08T02:13:56;94859.38;;;15.38;61.91
36932;BME280;22847;42.654;23.370;2023-05-08T02:16:25;94692.75;;;14.38;61.91
36932;BME280;22847;42.654;23.370;2023-05-08T02:18:53;94837.94;;;15.10;62.58
36932;BME280;22847;42.654;23.370;2023-05-08T02:21:21;94843.69;;;15.22;62.40
36932;BME280;22847;42.654;23.370;2023-05-08T02:23:48;94860.56;;;15.35;62.20
36932;BME280;22847;42.654;23.370;2023-05-08T02:26:15;94909.16;;;15.39;62.07
36932;BME280;22847;42.654;23.370;2023-05-08T02:28:41;94853.88;;;15.16;62.74
36932;BME280;22847;42.654;23.370;2023-05-08T02:31:08;94850.72;;;15.13;63.09
36932;BME280;22847;42.654;23.370;2023-05-08T02:33:37;94859.63;;;15.12;62.97
36932;BME280;22847;42.654;23.370;2023-05-08T02:36:04;94848.94;;;15.13;63.34
36932;BME280;22847;42.654;23.370;2023-05-08T02:38:32;94859.78;;;15.02;63.19
36932;BME280;22847;42.654;23.370;2023-05-08T02:41:01;94742.56;;;14.30;63.45
36932;BME280;22847;42.654;23.370;2023-05-08T02:43:27;94878.66;;;15.06;63.62
36932;BME280;22847;42.654;23.370;2023-05-08T02:46:13;94859.63;;;15.04;63.80
36932;BME280;22847;42.654;23.370;2023-05-08T02:48:45;94852.25;;;14.99;63.87
36932;BME280;22847;42.654;23.370;2023-05-08T02:53:51;94864.88;;;15.04;63.75
36932;BME280;22847;42.654;23.370;2023-05-08T02:56:28;94860.28;;;14.98;63.79
36932;BME280;22847;42.654;23.370;2023-05-08T02:59:00;94744.53;;;14.28;63.76
36932;BME280;22847;42.654;23.370;2023-05-08T03:01:36;94816.84;;;14.71;63.90
36932;BME280;22847;42.654;23.370;2023-05-08T03:04:06;94734.22;;;14.26;63.81
36932;BME280;22847;42.654;23.370;2023-05-08T03:06:41;94834.41;;;14.70;63.85
36932;BME280;22847;42.654;23.370;2023-05-08T03:09:14;94864.22;;;15.02;63.68
36932;BME280;22847;42.654;23.370;2023-05-08T03:11:42;94879.16;;;15.01;63.74
36932;BME280;22847;42.654;23.370;2023-05-08T03:14:10;94867.19;;;15.07;63.50
36932;BME280;22847;42.654;23.370;2023-05-08T03:16:38;94729.78;;;14.27;63.35
36932;BME280;22847;42.654;23.370;2023-05-08T03:19:21;94883.09;;;15.05;63.90
36932;BME280;22847;42.654;23.370;2023-05-08T03:21:50;94862.25;;;14.96;64.14
36932;BME280;22847;42.654;23.370;2023-05-08T03:24:17;94849.31;;;14.94;63.68
36932;BME280;22847;42.654;23.370;2023-05-08T03:26:44;94767.97;;;14.46;63.47
36932;BME280;22847;42.654;23.370;2023-05-08T03:29:12;94882.75;;;15.08;63.17
36932;BME280;22847;42.654;23.370;2023-05-08T03:31:38;94696.19;;;14.06;63.19
36932;BME280;22847;42.654;23.370;2023-05-08T03:34:05;94862.75;;;15.07;62.99
36932;BME280;22847;42.654;23.370;2023-05-08T03:36:33;94885.53;;;15.15;63.40
36932;BME280;22847;42.654;23.370;2023-05-08T03:38:58;94854.56;;;14.94;63.48
36932;BME280;22847;42.654;23.370;2023-05-08T03:41:24;94834.06;;;14.90;63.65
36932;BME280;22847;42.654;23.370;2023-05-08T03:43:50;94728.78;;;14.28;63.40
36932;BME280;22847;42.654;23.370;2023-05-08T03:46:16;94864.03;;;15.19;63.37
36932;BME280;22847;42.654;23.370;2023-05-08T03:48:45;94844.38;;;14.91;63.55
36932;BME280;22847;42.654;23.370;2023-05-08T03:51:11;94896.50;;;15.35;63.44
36932;BME280;22847;42.654;23.370;2023-05-08T03:53:37;94843.34;;;15.08;63.56
36932;BME280;22847;42.654;23.370;2023-05-08T03:56:02;94859.09;;;15.25;63.61
36932;BME280;22847;42.654;23.370;2023-05-08T03:58:42;94734.06;;;14.44;64.15
36932;BME280;22847;42.654;23.370;2023-05-08T04:01:39;94885.00;;;15.44;63.95
36932;BME280;22847;42.654;23.370;2023-05-08T04:06:43;94896.81;;;15.48;63.66
36932;BME280;22847;42.654;23.370;2023-05-08T04:09:21;94723.38;;;14.54;63.27
36932;BME280;22847;42.654;23.370;2023-05-08T04:14:37;94718.31;;;15.38;60.74
36932;BME280;22847;42.654;23.370;2023-05-08T04:17:08;94863.53;;;17.01;58.06
36932;BME280;22847;42.654;23.370;2023-05-08T04:19:37;94894.25;;;17.61;56.50
36932;BME280;22847;42.654;23.370;2023-05-08T04:22:07;94857.03;;;17.70;55.86
36932;BME280;22847;42.654;23.370;2023-05-08T04:24:39;94877.69;;;17.81;55.35
36932;BME280;22847;42.654;23.370;2023-05-08T04:27:06;94898.94;;;18.09;54.84
36932;BME280;22847;42.654;23.370;2023-05-08T04:29:33;94752.97;;;17.22;53.92
36932;BME280;22847;42.654;23.370;2023-05-08T04:31:59;94907.63;;;18.24;54.20
36932;BME280;22847;42.654;23.370;2023-05-08T04:34:26;94915.28;;;18.19;53.69
36932;BME280;22847;42.654;23.370;2023-05-08T04:36:52;94920.97;;;18.02;53.54
36932;BME280;22847;42.654;23.370;2023-05-08T04:39:18;94873.69;;;17.71;53.60
36932;BME280;22847;42.654;23.370;2023-05-08T04:41:44;94749.00;;;16.97;54.51
36932;BME280;22847;42.654;23.370;2023-05-08T04:44:09;94862.25;;;17.78;53.89
36932;BME280;22847;42.654;23.370;2023-05-08T04:46:35;94875.84;;;17.97;54.09
36932;BME280;22847;42.654;23.370;2023-05-08T04:49:01;94747.69;;;17.22;53.18
36932;BME280;22847;42.654;23.370;2023-05-08T04:51:26;94889.06;;;18.33;53.68
36932;BME280;22847;42.654;23.370;2023-05-08T04:53:51;94786.31;;;17.74;53.78
36932;BME280;22847;42.654;23.370;2023-05-08T04:56:17;94884.47;;;18.56;53.59
36932;BME280;22847;42.654;23.370;2023-05-08T04:58:43;94886.31;;;18.77;52.26
36932;BME280;22847;42.654;23.370;2023-05-08T05:01:08;94879.75;;;18.94;51.39
36932;BME280;22847;42.654;23.370;2023-05-08T05:03:34;94750.91;;;18.25;51.43
36932;BME280;22847;42.654;23.370;2023-05-08T05:06:00;94869.84;;;19.02;50.65
36932;BME280;22847;42.654;23.370;2023-05-08T05:08:26;94876.34;;;19.28;50.48
36932;BME280;22847;42.654;23.370;2023-05-08T05:10:51;94872.06;;;19.27;50.89
36932;BME280;22847;42.654;23.370;2023-05-08T05:13:17;94774.19;;;18.86;49.74
36932;BME280;22847;42.654;23.370;2023-05-08T05:15:43;94854.00;;;19.58;48.90
36932;BME280;22847;42.654;23.370;2023-05-08T05:18:09;94868.31;;;19.70;48.20
36932;BME280;22847;42.654;23.370;2023-05-08T05:20:35;94699.47;;;18.98;47.81
36932;BME280;22847;42.654;23.370;2023-05-08T05:23:01;94839.09;;;19.91;47.92
36932;BME280;22847;42.654;23.370;2023-05-08T05:25:27;94871.06;;;20.37;47.87
36932;BME280;22847;42.654;23.370;2023-05-08T05:27:52;94868.59;;;20.36;47.88
36932;BME280;22847;42.654;23.370;2023-05-08T05:30:18;94892.09;;;20.52;46.95
36932;BME280;22847;42.654;23.370;2023-05-08T05:32:43;94864.97;;;20.50;46.68
36932;BME280;22847;42.654;23.370;2023-05-08T05:35:09;94866.03;;;20.69;46.56
36932;BME280;22847;42.654;23.370;2023-05-08T05:37:35;94872.38;;;20.87;45.63
36932;BME280;22847;42.654;23.370;2023-05-08T05:40:00;94867.88;;;20.94;45.47
36932;BME280;22847;42.654;23.370;2023-05-08T05:42:26;94749.25;;;20.57;44.89
36932;BME280;22847;42.654;23.370;2023-05-08T05:44:51;94877.50;;;21.35;45.62
36932;BME280;22847;42.654;23.370;2023-05-08T05:47:17;94872.81;;;21.50;45.58
36932;BME280;22847;42.654;23.370;2023-05-08T05:49:42;94860.72;;;21.67;45.05
36932;BME280;22847;42.654;23.370;2023-05-08T05:52:11;94799.75;;;21.41;44.84
36932;BME280;22847;42.654;23.370;2023-05-08T05:54:36;94848.66;;;21.71;45.21
36932;BME280;22847;42.654;23.370;2023-05-08T05:57:02;94878.63;;;21.98;43.77
36932;BME280;22847;42.654;23.370;2023-05-08T05:59:28;94834.25;;;21.48;44.44
36932;BME280;22847;42.654;23.370;2023-05-08T06:01:53;94855.63;;;21.59;44.43
36932;BME280;22847;42.654;23.370;2023-05-08T06:04:19;94861.06;;;21.84;45.01
36932;BME280;22847;42.654;23.370;2023-05-08T06:06:44;94725.53;;;21.21;44.03
36932;BME280;22847;42.654;23.370;2023-05-08T06:09:09;94844.47;;;22.08;44.22
36932;BME280;22847;42.654;23.370;2023-05-08T06:11:35;94850.84;;;22.01;43.75
36932;BME280;22847;42.654;23.370;2023-05-08T06:14:00;94823.72;;;21.86;43.71
36932;BME280;22847;42.654;23.370;2023-05-08T06:16:26;94850.44;;;21.91;43.99
36932;BME280;22847;42.654;23.370;2023-05-08T06:18:51;94833.34;;;21.67;44.41
36932;BME280;22847;42.654;23.370;2023-05-08T06:21:16;94731.66;;;21.15;44.25
36932;BME280;22847;42.654;23.370;2023-05-08T06:23:42;94849.50;;;21.59;44.47
36932;BME280;22847;42.654;23.370;2023-05-08T06:26:07;94773.69;;;21.12;44.89
36932;BME280;22847;42.654;23.370;2023-05-08T06:28:33;94842.97;;;21.74;44.38
36932;BME280;22847;42.654;23.370;2023-05-08T06:30:58;94836.19;;;21.78;45.11
36932;BME280;22847;42.654;23.370;2023-05-08T06:33:24;94736.94;;;21.22;43.97
36932;BME280;22847;42.654;23.370;2023-05-08T06:35:50;94763.84;;;21.25;44.24
36932;BME280;22847;42.654;23.370;2023-05-08T06:38:15;94846.47;;;21.49;44.54
36932;BME280;22847;42.654;23.370;2023-05-08T06:40:44;94800.78;;;20.94;44.85
36932;BME280;22847;42.654;23.370;2023-05-08T06:43:11;94610.41;;;19.46;45.74
36932;BME280;22847;42.654;23.370;2023-05-08T06:45:38;94862.78;;;21.00;46.41
36932;BME280;22847;42.654;23.370;2023-05-08T06:48:05;94780.63;;;20.67;46.17
36932;BME280;22847;42.654;23.370;2023-05-08T06:50:30;94709.47;;;20.31;46.17
36932;BME280;22847;42.654;23.370;2023-05-08T06:52:56;94822.41;;;21.04;46.17
36932;BME280;22847;42.654;23.370;2023-05-08T06:55:22;94820.81;;;21.16;47.28
36932;BME280;22847;42.654;23.370;2023-05-08T06:57:47;94853.97;;;21.71;46.31
36932;BME280;22847;42.654;23.370;2023-05-08T07:00:13;94846.78;;;21.85;46.22
36932;BME280;22847;42.654;23.370;2023-05-08T07:02:38;94847.25;;;21.62;44.72
36932;BME280;22847;42.654;23.370;2023-05-08T07:05:04;94854.88;;;21.32;46.04
36932;BME280;22847;42.654;23.370;2023-05-08T07:07:30;94874.03;;;21.34;45.86
36932;BME280;22847;42.654;23.370;2023-05-08T07:09:55;94823.84;;;20.80;46.06
36932;BME280;22847;42.654;23.370;2023-05-08T07:12:20;94843.00;;;20.96;46.22
36932;BME280;22847;42.654;23.370;2023-05-08T07:14:46;94820.00;;;21.16;46.14
36932;BME280;22847;42.654;23.370;2023-05-08T07:17:12;94839.56;;;21.41;46.31
36932;BME280;22847;42.654;23.370;2023-05-08T07:19:37;94862.56;;;21.67;46.18
36932;BME280;22847;42.654;23.370;2023-05-08T07:22:03;94862.13;;;21.76;46.58
36932;BME280;22847;42.654;23.370;2023-05-08T07:24:30;94856.19;;;21.81;45.31
36932;BME280;22847;42.654;23.370;2023-05-08T07:26:55;94816.56;;;21.79;45.61
36932;BME280;22847;42.654;23.370;2023-05-08T07:29:20;94740.00;;;21.25;43.30
36932;BME280;22847;42.654;23.370;2023-05-08T07:31:46;94606.59;;;20.01;44.98
36932;BME280;22847;42.654;23.370;2023-05-08T07:34:13;94851.56;;;21.50;45.41
36932;BME280;22847;42.654;23.370;2023-05-08T07:36:38;94849.97;;;21.23;45.48
36932;BME280;22847;42.654;23.370;2023-05-08T07:39:04;94800.00;;;21.13;46.35
36932;BME280;22847;42.654;23.370;2023-05-08T07:41:30;94861.34;;;21.69;45.82
36932;BME280;22847;42.654;23.370;2023-05-08T07:43:55;94857.00;;;21.95;45.68
36932;BME280;22847;42.654;23.370;2023-05-08T07:46:21;94850.69;;;21.76;45.51
36932;BME280;22847;42.654;23.370;2023-05-08T07:48:46;94861.34;;;21.69;45.80
36932;BME280;22847;42.654;23.370;2023-05-08T07:51:12;94871.69;;;21.84;46.09
36932;BME280;22847;42.654;23.370;2023-05-08T07:53:38;94877.00;;;22.04;44.50
36932;BME280;22847;42.654;23.370;2023-05-08T07:56:04;94724.53;;;20.96;44.52
36932;BME280;22847;42.654;23.370;2023-05-08T07:58:30;94789.13;;;21.41;45.26
36932;BME280;22847;42.654;23.370;2023-05-08T08:00:55;94834.81;;;21.63;45.35
36932;BME280;22847;42.654;23.370;2023-05-08T08:03:20;94887.03;;;22.02;45.34
36932;BME280;22847;42.654;23.370;2023-05-08T08:05:46;94869.94;;;22.29;44.22
36932;BME280;22847;42.654;23.370;2023-05-08T08:08:11;94862.94;;;21.97;42.86
36932;BME280;22847;42.654;23.370;2023-05-08T08:10:37;94846.38;;;21.95;44.38
36932;BME280;22847;42.654;23.370;2023-05-08T08:13:03;94745.19;;;21.58;44.42
36932;BME280;22847;42.654;23.370;2023-05-08T08:15:30;94835.38;;;22.36;43.71
36932;BME280;22847;42.654;23.370;2023-05-08T08:17:55;94859.06;;;23.06;42.48
36932;BME280;22847;42.654;23.370;2023-05-08T08:20:21;94737.69;;;22.31;41.62
36932;BME280;22847;42.654;23.370;2023-05-08T08:22:47;94868.63;;;23.14;42.59
36932;BME280;22847;42.654;23.370;2023-05-08T08:25:12;94829.22;;;23.04;42.62
36932;BME280;22847;42.654;23.370;2023-05-08T08:27:38;94866.31;;;23.42;41.43
36932;BME280;22847;42.654;23.370;2023-05-08T08:30:04;94762.28;;;22.83;41.65
36932;BME280;22847;42.654;23.370;2023-05-08T08:32:29;94839.25;;;23.27;42.93
36932;BME280;22847;42.654;23.370;2023-05-08T08:34:54;94776.78;;;22.55;42.97
36932;BME280;22847;42.654;23.370;2023-05-08T08:37:20;94836.31;;;22.86;42.40
36932;BME280;22847;42.654;23.370;2023-05-08T08:39:46;94714.22;;;21.97;42.99
36932;BME280;22847;42.654;23.370;2023-05-08T08:42:13;94850.94;;;22.63;43.18
36932;BME280;22847;42.654;23.370;2023-05-08T08:44:38;94838.06;;;22.60;43.08
36932;BME280;22847;42.654;23.370;2023-05-08T08:47:04;94800.78;;;22.11;44.62
36932;BME280;22847;42.654;23.370;2023-05-08T08:49:34;94794.84;;;22.09;44.80
36932;BME280;22847;42.654;23.370;2023-05-08T08:52:18;94803.28;;;21.79;46.00
36932;BME280;22847;42.654;23.370;2023-05-08T08:54:48;94845.56;;;22.01;46.77
36932;BME280;22847;42.654;23.370;2023-05-08T08:57:14;94666.38;;;21.08;46.04
36932;BME280;22847;42.654;23.370;2023-05-08T08:59:41;94830.94;;;22.23;45.14
36932;BME280;22847;42.654;23.370;2023-05-08T09:02:10;94807.75;;;21.99;45.75
36932;BME280;22847;42.654;23.370;2023-05-08T09:04:37;94825.06;;;22.14;45.21
36932;BME280;22847;42.654;23.370;2023-05-08T09:07:03;94830.13;;;22.16;46.13
36932;BME280;22847;42.654;23.370;2023-05-08T09:09:31;94822.16;;;22.22;45.76
36932;BME280;22847;42.654;23.370;2023-05-08T09:11:58;94684.91;;;21.34;45.64
36932;BME280;22847;42.654;23.370;2023-05-08T09:14:25;94793.47;;;21.93;45.75
36932;BME280;22847;42.654;23.370;2023-05-08T09:16:52;94707.75;;;21.28;45.71
36932;BME280;22847;42.654;23.370;2023-05-08T09:19:17;94679.06;;;20.92;46.27
36932;BME280;22847;42.654;23.370;2023-05-08T09:21:44;94785.41;;;21.62;46.19
36932;BME280;22847;42.654;23.370;2023-05-08T09:24:09;94793.56;;;21.67;46.90
36932;BME280;22847;42.654;23.370;2023-05-08T09:26:39;94766.28;;;21.40;46.89
36932;BME280;22847;42.654;23.370;2023-05-08T09:29:15;94787.28;;;21.48;47.09
36932;BME280;22847;42.654;23.370;2023-05-08T09:31:43;94790.00;;;21.22;47.71
36932;BME280;22847;42.654;23.370;2023-05-08T09:34:10;94751.84;;;21.03;48.08
36932;BME280;22847;42.654;23.370;2023-05-08T09:36:36;94730.06;;;20.88;47.82
36932;BME280;22847;42.654;23.370;2023-05-08T09:39:04;94782.47;;;20.79;49.20
36932;BME280;22847;42.654;23.370;2023-05-08T09:41:34;94781.63;;;20.72;49.05
36932;BME280;22847;42.654;23.370;2023-05-08T09:44:04;94784.47;;;21.04;49.14
36932;BME280;22847;42.654;23.370;2023-05-08T09:46:30;94787.97;;;21.24;49.34
36932;BME280;22847;42.654;23.370;2023-05-08T09:49:00;94705.34;;;20.94;49.38
36932;BME280;22847;42.654;23.370;2023-05-08T09:51:27;94790.25;;;21.71;47.83
36932;BME280;22847;42.654;23.370;2023-05-08T09:53:54;94698.63;;;21.05;48.02
36932;BME280;22847;42.654;23.370;2023-05-08T09:56:36;94707.78;;;21.22;48.31
36932;BME280;22847;42.654;23.370;2023-05-08T09:59:03;94769.41;;;21.75;48.39
36932;BME280;22847;42.654;23.370;2023-05-08T10:01:34;94800.00;;;21.97;48.50
36932;BME280;22847;42.654;23.370;2023-05-08T10:04:01;94791.81;;;22.05;48.39
36932;BME280;22847;42.654;23.370;2023-05-08T10:06:27;94801.53;;;22.18;48.97
36932;BME280;22847;42.654;23.370;2023-05-08T10:11:35;94795.31;;;22.37;47.95
36932;BME280;22847;42.654;23.370;2023-05-08T10:14:01;94785.66;;;22.43;47.93
36932;BME280;22847;42.654;23.370;2023-05-08T10:16:28;94676.69;;;21.80;48.16
36932;BME280;22847;42.654;23.370;2023-05-08T10:18:59;94758.34;;;22.29;47.41
36932;BME280;22847;42.654;23.370;2023-05-08T10:21:28;94782.25;;;22.29;47.60
36932;BME280;22847;42.654;23.370;2023-05-08T10:23:55;94782.50;;;22.28;48.41
36932;BME280;22847;42.654;23.370;2023-05-08T10:26:29;94772.88;;;22.27;48.66
36932;BME280;22847;42.654;23.370;2023-05-08T10:28:58;94776.31;;;22.34;48.38
36932;BME280;22847;42.654;23.370;2023-05-08T10:31:29;94771.31;;;22.50;48.34
36932;BME280;22847;42.654;23.370;2023-05-08T10:33:55;94641.22;;;21.74;48.19
36932;BME280;22847;42.654;23.370;2023-05-08T10:36:25;94770.59;;;22.61;47.17
36932;BME280;22847;42.654;23.370;2023-05-08T10:38:52;94761.97;;;22.73;46.31
36932;BME280;22847;42.654;23.370;2023-05-08T10:41:18;94745.41;;;22.71;47.65
36932;BME280;22847;42.654;23.370;2023-05-08T10:43:44;94571.41;;;21.74;46.57
36932;BME280;22847;42.654;23.370;2023-05-08T10:46:33;94763.53;;;23.05;46.40
36932;BME280;22847;42.654;23.370;2023-05-08T10:49:14;94736.66;;;23.13;47.33
36932;BME280;22847;42.654;23.370;2023-05-08T10:51:50;94755.44;;;23.36;46.26
36932;BME280;22847;42.654;23.370;2023-05-08T10:54:24;94750.81;;;23.50;47.08
36932;BME280;22847;42.654;23.370;2023-05-08T10:56:50;94750.56;;;23.51;47.24
36932;BME280;22847;42.654;23.370;2023-05-08T10:59:19;94730.25;;;23.57;46.67
36932;BME280;22847;42.654;23.370;2023-05-08T11:01:47;94751.41;;;23.52;47.19
36932;BME280;22847;42.654;23.370;2023-05-08T11:04:20;94717.28;;;23.24;46.83
36932;BME280;22847;42.654;23.370;2023-05-08T11:06:47;94740.34;;;23.30;47.53
36932;BME280;22847;42.654;23.370;2023-05-08T11:12:23;94599.38;;;22.51;47.12
36932;BME280;22847;42.654;23.370;2023-05-08T11:15:07;94605.06;;;22.54;46.99
36932;BME280;22847;42.654;23.370;2023-05-08T11:17:34;94727.25;;;23.29;46.48
36932;BME280;22847;42.654;23.370;2023-05-08T11:20:04;94722.31;;;23.32;47.15
36932;BME280;22847;42.654;23.370;2023-05-08T11:22:34;94734.31;;;23.41;46.88
36932;BME280;22847;42.654;23.370;2023-05-08T11:25:06;94708.13;;;23.56;46.00
36932;BME280;22847;42.654;23.370;2023-05-08T11:30:33;94717.53;;;23.59;45.07
36932;BME280;22847;42.654;23.370;2023-05-08T11:35:46;94575.72;;;22.86;45.18
36932;BME280;22847;42.654;23.370;2023-05-08T11:41:00;94692.38;;;24.03;46.37
36932;BME280;22847;42.654;23.370;2023-05-08T11:46:05;94684.03;;;23.99;43.41
36932;BME280;22847;42.654;23.370;2023-05-08T11:48:33;94651.31;;;23.92;43.35
36932;BME280;22847;42.654;23.370;2023-05-08T11:50:59;94654.66;;;23.88;42.80
36932;BME280;22847;42.654;23.370;2023-05-08T11:53:25;94669.22;;;24.15;43.67
36932;BME280;22847;42.654;23.370;2023-05-08T11:55:54;94669.88;;;24.17;44.92
36932;BME280;22847;42.654;23.370;2023-05-08T11:58:19;94657.75;;;24.03;43.73
36932;BME280;22847;42.654;23.370;2023-05-08T12:00:46;94650.75;;;23.90;43.49
36932;BME280;22847;42.654;23.370;2023-05-08T12:03:20;94523.97;;;23.18;44.25
36932;BME280;22847;42.654;23.370;2023-05-08T12:05:47;94654.34;;;23.96;44.22
36932;BME280;22847;42.654;23.370;2023-05-08T12:08:13;94651.94;;;24.06;43.37
36932;BME280;22847;42.654;23.370;2023-05-08T12:13:19;94625.44;;;24.11;41.59
36932;BME280;22847;42.654;23.370;2023-05-08T12:15:52;94655.16;;;23.96;42.05
36932;BME280;22847;42.654;23.370;2023-05-08T12:18:19;94663.34;;;23.83;41.90
36932;BME280;22847;42.654;23.370;2023-05-08T12:20:45;94634.66;;;23.97;42.84
36932;BME280;22847;42.654;23.370;2023-05-08T12:23:16;94629.69;;;24.00;43.12
36932;BME280;22847;42.654;23.370;2023-05-08T12:25:41;94625.03;;;23.36;43.42
36932;BME280;22847;42.654;23.370;2023-05-08T12:28:08;94508.13;;;22.93;42.88
36932;BME280;22847;42.654;23.370;2023-05-08T12:30:34;94628.59;;;23.78;44.11
36932;BME280;22847;42.654;23.370;2023-05-08T12:33:00;94655.59;;;23.82;43.53
36932;BME280;22847;42.654;23.370;2023-05-08T12:35:26;94502.94;;;22.98;43.45
36932;BME280;22847;42.654;23.370;2023-05-08T12:37:52;94628.41;;;23.62;43.74
36932;BME280;22847;42.654;23.370;2023-05-08T12:40:46;94618.59;;;23.62;44.18
36932;BME280;22847;42.654;23.370;2023-05-08T12:43:17;94620.28;;;23.56;43.25
36932;BME280;22847;42.654;23.370;2023-05-08T12:45:43;94570.78;;;23.19;42.82
36932;BME280;22847;42.654;23.370;2023-05-08T12:48:10;94630.88;;;23.27;43.44
36932;BME280;22847;42.654;23.370;2023-05-08T12:50:37;94575.91;;;23.02;44.19
36932;BME280;22847;42.654;23.370;2023-05-08T12:53:09;94608.47;;;23.34;43.63
36932;BME280;22847;42.654;23.370;2023-05-08T12:55:36;94594.00;;;23.30;43.73
36932;BME280;22847;42.654;23.370;2023-05-08T12:58:10;94608.63;;;23.39;43.72
36932;BME280;22847;42.654;23.370;2023-05-08T13:00:43;94561.06;;;23.13;43.45
36932;BME280;22847;42.654;23.370;2023-05-08T13:03:11;94608.94;;;23.31;43.87
36932;BME280;22847;42.654;23.370;2023-05-08T13:05:43;94607.91;;;23.32;44.15
36932;BME280;22847;42.654;23.370;2023-05-08T13:08:10;94607.75;;;23.27;44.67
36932;BME280;22847;42.654;23.370;2023-05-08T13:13:21;94466.19;;;22.41;44.22
36932;BME280;22847;42.654;23.370;2023-05-08T13:15:47;94625.03;;;23.36;45.09
36932;BME280;22847;42.654;23.370;2023-05-08T13:18:14;94647.72;;;23.21;47.11
36932;BME280;22847;42.654;23.370;2023-05-08T13:20:40;94538.50;;;22.24;48.89
36932;BME280;22847;42.654;23.370;2023-05-08T13:23:06;94635.78;;;22.50;49.88
36932;BME280;22847;42.654;23.370;2023-05-08T13:25:32;94546.78;;;21.60;50.16
36932;BME280;22847;42.654;23.370;2023-05-08T13:27:58;94643.28;;;22.04;50.81
36932;BME280;22847;42.654;23.370;2023-05-08T13:30:24;94535.63;;;21.52;50.68
36932;BME280;22847;42.654;23.370;2023-05-08T13:32:51;94523.47;;;21.38;50.56
36932;BME280;22847;42.654;23.370;2023-05-08T13:35:18;94677.00;;;22.03;51.17
36932;BME280;22847;42.654;23.370;2023-05-08T13:37:43;94641.63;;;21.71;52.08
36932;BME280;22847;42.654;23.370;2023-05-08T13:40:10;94627.13;;;21.36;52.52
36932;BME280;22847;42.654;23.370;2023-05-08T13:42:35;94656.81;;;21.58;52.88
36932;BME280;22847;42.654;23.370;2023-05-08T13:45:03;94679.16;;;21.37;53.70
36932;BME280;22847;42.654;23.370;2023-05-08T13:47:28;94699.72;;;21.48;53.46
36932;BME280;22847;42.654;23.370;2023-05-08T13:49:54;94516.97;;;20.38;55.02